createdAt,value
2017-12-13T00:00:14.525Z,75.30
2017-12-13T00:01:14.492Z,77.00
2017-12-13T00:02:14.481Z,77.10
2017-12-13T00:03:14.512Z,72.20
2017-12-13T00:04:14.444Z,76.40
2017-12-13T00:05:14.442Z,78.60
2017-12-13T00:06:14.411Z,72.10
2017-12-13T00:07:14.386Z,75.40
2017-12-13T00:08:14.374Z,73.00
2017-12-13T00:09:14.409Z,73.60
2017-12-13T00:10:14.345Z,71.00
2017-12-13T00:11:14.311Z,72.30
2017-12-13T00:12:14.299Z,73.60
2017-12-13T00:13:14.299Z,71.10
2017-12-13T00:14:14.265Z,72.50
2017-12-13T00:15:14.270Z,70.90
2017-12-13T00:16:14.217Z,67.00
2017-12-13T00:17:14.217Z,66.20
2017-12-13T00:18:14.196Z,65.10
2017-12-13T00:19:14.165Z,66.70
2017-12-13T00:20:14.190Z,64.00
2017-12-13T00:21:14.143Z,66.40
2017-12-13T00:22:14.111Z,67.30
2017-12-13T00:23:14.109Z,63.50
2017-12-13T00:24:14.100Z,62.40
2017-12-13T00:25:14.139Z,65.00
2017-12-13T00:26:14.058Z,65.20
2017-12-13T00:27:14.029Z,64.40
2017-12-13T00:28:14.025Z,63.30
2017-12-13T00:29:13.993Z,65.00
2017-12-13T00:30:13.973Z,62.30
2017-12-13T00:31:13.990Z,60.70
2017-12-13T00:32:13.952Z,61.10
2017-12-13T00:33:13.951Z,57.80
2017-12-13T00:34:13.919Z,58.70
2017-12-13T00:35:13.958Z,61.00
2017-12-13T00:36:13.868Z,60.60
2017-12-13T00:37:13.849Z,56.90
2017-12-13T00:38:13.830Z,59.40
2017-12-13T00:39:13.822Z,57.30
2017-12-13T00:40:13.798Z,56.80
2017-12-13T00:41:13.838Z,60.80
2017-12-13T00:42:13.762Z,55.00
2017-12-13T00:43:13.742Z,53.50
2017-12-13T00:44:13.747Z,56.70
2017-12-13T00:45:13.724Z,56.60
2017-12-13T00:46:13.714Z,54.60
2017-12-13T00:47:13.704Z,57.30
2017-12-13T00:48:13.662Z,54.40
2017-12-13T00:49:13.663Z,55.50
2017-12-13T00:50:13.639Z,56.10
2017-12-13T00:51:13.623Z,53.70
2017-12-13T00:52:13.633Z,52.30
2017-12-13T00:53:13.587Z,54.50
2017-12-13T00:54:13.566Z,51.40
2017-12-13T00:55:13.534Z,52.10
2017-12-13T00:56:13.514Z,52.90
2017-12-13T00:57:13.572Z,59.40
2017-12-13T00:58:13.495Z,51.30
2017-12-13T00:59:13.482Z,54.40
2017-12-13T01:00:13.461Z,58.00
2017-12-13T01:01:13.427Z,53.30
2017-12-13T01:02:13.408Z,55.30
2017-12-13T01:03:13.460Z,57.30
2017-12-13T01:04:13.387Z,53.90
2017-12-13T01:05:13.358Z,54.40
2017-12-13T01:06:13.345Z,50.30
2017-12-13T01:07:13.327Z,52.40
2017-12-13T01:08:13.301Z,53.10
2017-12-13T01:09:13.321Z,50.20
2017-12-13T01:10:13.283Z,51.90
2017-12-13T01:11:13.262Z,49.20
2017-12-13T01:12:13.235Z,51.40
2017-12-13T01:13:13.228Z,54.00
2017-12-13T01:14:13.274Z,50.00
2017-12-13T01:15:13.203Z,48.90
2017-12-13T01:16:13.173Z,50.30
2017-12-13T01:17:13.148Z,51.90
2017-12-13T01:18:13.128Z,49.70
2017-12-13T01:19:13.108Z,50.00
2017-12-13T01:20:13.149Z,48.10
2017-12-13T01:21:13.090Z,51.50
2017-12-13T01:22:13.067Z,50.20
2017-12-13T01:23:13.038Z,50.10
2017-12-13T01:24:13.044Z,49.40
2017-12-13T01:25:13.006Z,50.80
2017-12-13T01:26:13.051Z,50.30
2017-12-13T01:27:12.983Z,50.10
2017-12-13T01:28:12.970Z,52.40
2017-12-13T01:29:12.939Z,48.20
2017-12-13T01:30:12.916Z,48.80
2017-12-13T01:31:12.905Z,49.00
2017-12-13T01:32:12.941Z,51.70
2017-12-13T01:33:12.881Z,47.30
2017-12-13T01:34:12.860Z,48.20
2017-12-13T01:35:12.828Z,50.20
2017-12-13T01:36:12.806Z,49.70
2017-12-13T01:37:12.796Z,48.20
2017-12-13T01:38:12.819Z,47.90
2017-12-13T01:39:12.760Z,46.50
2017-12-13T01:40:12.765Z,45.50
2017-12-13T01:41:12.739Z,47.30
2017-12-13T01:42:12.713Z,45.50
2017-12-13T01:43:12.732Z,45.60
2017-12-13T01:44:12.680Z,41.90
2017-12-13T01:45:12.659Z,46.80
2017-12-13T01:46:12.646Z,47.10
2017-12-13T01:47:12.639Z,45.60
2017-12-13T01:48:12.663Z,46.90
2017-12-13T01:49:12.593Z,43.50
2017-12-13T01:50:12.574Z,41.90
2017-12-13T01:51:12.560Z,42.40
2017-12-13T01:52:12.533Z,44.90
2017-12-13T01:53:12.523Z,43.10
2017-12-13T01:54:12.545Z,47.70
2017-12-13T01:55:12.492Z,48.00
2017-12-13T01:56:12.481Z,44.10
2017-12-13T01:57:12.459Z,46.10
2017-12-13T01:58:12.470Z,43.20
2017-12-13T01:59:12.485Z,46.80
2017-12-13T02:00:12.392Z,43.50
2017-12-13T02:01:12.391Z,43.60
2017-12-13T02:02:12.373Z,46.80
2017-12-13T02:03:12.357Z,46.40
2017-12-13T02:04:12.339Z,44.70
2017-12-13T02:05:12.351Z,44.80
2017-12-13T02:06:12.301Z,45.10
2017-12-13T02:07:12.287Z,44.30
2017-12-13T02:08:12.263Z,40.60
2017-12-13T02:09:12.248Z,38.80
2017-12-13T02:10:12.223Z,43.00
2017-12-13T02:11:12.236Z,41.90
2017-12-13T02:12:12.179Z,40.20
2017-12-13T02:13:12.173Z,45.20
2017-12-13T02:14:12.147Z,39.90
2017-12-13T02:15:12.159Z,40.10
2017-12-13T02:16:12.183Z,38.80
2017-12-13T02:17:12.109Z,42.00
2017-12-13T02:18:12.090Z,41.20
2017-12-13T02:19:12.062Z,36.80
2017-12-13T02:20:12.053Z,38.10
2017-12-13T02:21:12.040Z,40.70
2017-12-13T02:22:12.046Z,38.40
2017-12-13T02:23:11.998Z,43.60
2017-12-13T02:24:11.976Z,34.70
2017-12-13T02:25:11.962Z,37.70
2017-12-13T02:26:11.939Z,37.70
2017-12-13T02:27:11.959Z,39.00
2017-12-13T02:28:11.913Z,37.10
2017-12-13T02:29:11.886Z,36.00
2017-12-13T02:30:11.862Z,38.20
2017-12-13T02:31:11.859Z,37.90
2017-12-13T02:32:11.893Z,35.50
2017-12-13T02:33:11.826Z,35.50
2017-12-13T02:34:11.846Z,34.10
2017-12-13T02:35:11.790Z,35.60
2017-12-13T02:36:11.795Z,35.00
2017-12-13T02:37:11.748Z,36.40
2017-12-13T02:38:11.803Z,36.80
2017-12-13T02:39:11.714Z,36.20
2017-12-13T02:40:11.699Z,35.10
2017-12-13T02:41:11.678Z,35.90
2017-12-13T02:42:11.650Z,37.70
2017-12-13T02:43:11.671Z,31.80
2017-12-13T02:44:11.686Z,34.60
2017-12-13T02:45:11.596Z,34.10
2017-12-13T02:46:11.577Z,32.80
2017-12-13T02:47:11.560Z,33.40
2017-12-13T02:48:11.539Z,33.40
2017-12-13T02:49:11.529Z,29.00
2017-12-13T02:50:11.584Z,35.10
2017-12-13T02:51:11.513Z,32.40
2017-12-13T02:52:11.474Z,32.50
2017-12-13T02:53:11.476Z,32.10
2017-12-13T02:54:11.448Z,30.50
2017-12-13T02:55:11.469Z,31.20
2017-12-13T02:56:11.467Z,28.40
2017-12-13T02:57:11.393Z,30.40
2017-12-13T02:58:11.383Z,30.60
2017-12-13T02:59:11.343Z,31.70
2017-12-13T03:00:11.347Z,31.60
2017-12-13T03:01:11.337Z,28.50
2017-12-13T03:02:11.365Z,32.50
2017-12-13T03:03:11.277Z,28.50
2017-12-13T03:04:11.282Z,29.40
2017-12-13T03:05:11.258Z,28.30
2017-12-13T03:06:11.246Z,29.00
2017-12-13T03:07:11.213Z,29.50
2017-12-13T03:08:11.260Z,29.30
2017-12-13T03:09:11.175Z,32.60
2017-12-13T03:10:11.162Z,28.10
2017-12-13T03:11:11.144Z,28.30
2017-12-13T03:12:11.128Z,29.20
2017-12-13T03:13:11.121Z,27.30
2017-12-13T03:14:11.155Z,30.20
2017-12-13T03:15:11.066Z,27.30
2017-12-13T03:16:11.051Z,27.60
2017-12-13T03:17:11.036Z,29.00
2017-12-13T03:18:11.020Z,26.50
2017-12-13T03:19:10.998Z,28.30
2017-12-13T03:20:11.060Z,27.30
2017-12-13T03:21:10.967Z,27.10
2017-12-13T03:22:10.951Z,27.70
2017-12-13T03:23:10.921Z,27.40
2017-12-13T03:24:10.909Z,28.10
2017-12-13T03:25:10.901Z,24.90
2017-12-13T03:26:10.935Z,25.90
2017-12-13T03:27:10.854Z,24.00
2017-12-13T03:28:10.835Z,24.20
2017-12-13T03:29:10.815Z,26.50
2017-12-13T03:30:10.834Z,25.60
2017-12-13T03:31:10.802Z,27.40
2017-12-13T03:32:10.821Z,23.60
2017-12-13T03:33:10.777Z,23.10
2017-12-13T03:34:10.732Z,21.30
2017-12-13T03:35:10.774Z,22.90
2017-12-13T03:36:10.705Z,21.30
2017-12-13T03:37:10.685Z,21.90
2017-12-13T03:38:10.651Z,22.00
2017-12-13T03:39:10.657Z,22.30
2017-12-13T03:40:10.624Z,21.10
2017-12-13T03:41:10.636Z,23.70
2017-12-13T03:42:10.587Z,22.30
2017-12-13T03:43:10.574Z,24.20
2017-12-13T03:44:10.561Z,24.10
2017-12-13T03:45:10.558Z,22.30
2017-12-13T03:46:10.565Z,22.90
2017-12-13T03:47:10.494Z,23.00
2017-12-13T03:48:10.474Z,20.80
2017-12-13T03:49:10.463Z,19.40
2017-12-13T03:50:10.454Z,21.10
2017-12-13T03:51:10.422Z,19.60
2017-12-13T03:52:10.440Z,20.70
2017-12-13T03:53:10.390Z,20.00
2017-12-13T03:54:10.384Z,20.60
2017-12-13T03:55:10.354Z,20.40
2017-12-13T03:56:10.330Z,22.00
2017-12-13T03:57:10.349Z,19.70
2017-12-13T03:58:10.310Z,21.50
2017-12-13T03:59:10.298Z,19.70
2017-12-13T04:00:10.287Z,21.10
2017-12-13T04:01:10.237Z,20.50
2017-12-13T04:02:10.268Z,20.30
2017-12-13T04:03:10.224Z,19.20
2017-12-13T04:04:10.188Z,18.00
2017-12-13T04:05:10.186Z,17.10
2017-12-13T04:06:10.162Z,18.80
2017-12-13T04:07:10.205Z,17.90
2017-12-13T04:08:10.124Z,17.70
2017-12-13T04:09:10.098Z,17.30
2017-12-13T04:10:10.079Z,17.80
2017-12-13T04:11:10.060Z,20.50
2017-12-13T04:12:10.062Z,18.70
2017-12-13T04:13:10.059Z,16.40
2017-12-13T04:14:10.018Z,19.00
2017-12-13T04:15:10.011Z,15.00
2017-12-13T04:16:09.987Z,17.60
2017-12-13T04:17:10.009Z,17.60
2017-12-13T04:18:09.954Z,17.70
2017-12-13T04:19:09.936Z,16.80
2017-12-13T04:20:09.916Z,16.20
2017-12-13T04:21:09.889Z,17.10
2017-12-13T04:22:09.934Z,16.70
2017-12-13T04:23:09.867Z,16.40
2017-12-13T04:24:09.852Z,17.80
2017-12-13T04:25:09.830Z,18.70
2017-12-13T04:26:09.805Z,17.00
2017-12-13T04:27:09.788Z,16.10
2017-12-13T04:28:09.835Z,16.00
2017-12-13T04:29:09.758Z,16.20
2017-12-13T04:30:09.737Z,16.30
2017-12-13T04:31:09.714Z,16.20
2017-12-13T04:32:09.704Z,16.40
2017-12-13T04:33:09.691Z,15.50
2017-12-13T04:34:09.737Z,16.40
2017-12-13T04:35:09.652Z,16.10
2017-12-13T04:36:09.619Z,15.80
2017-12-13T04:37:09.612Z,16.70
2017-12-13T04:38:09.616Z,14.40
2017-12-13T04:39:09.563Z,15.60
2017-12-13T04:40:09.597Z,15.20
2017-12-13T04:41:09.536Z,15.40
2017-12-13T04:42:09.516Z,16.50
2017-12-13T04:43:09.527Z,16.50
2017-12-13T04:44:09.543Z,15.90
2017-12-13T04:45:09.480Z,16.60
2017-12-13T04:46:09.502Z,15.40
2017-12-13T04:47:09.428Z,15.40
2017-12-13T04:48:09.415Z,15.40
2017-12-13T04:49:09.388Z,16.10
2017-12-13T04:50:09.372Z,15.60
2017-12-13T04:51:09.365Z,17.20
2017-12-13T04:52:09.385Z,15.10
2017-12-13T04:53:09.320Z,16.30
2017-12-13T04:54:10.316Z,15.40
2017-12-13T04:55:09.297Z,16.20
2017-12-13T04:56:09.273Z,14.70
2017-12-13T04:57:09.249Z,14.10
2017-12-13T04:58:09.239Z,14.10
2017-12-13T04:59:09.236Z,16.00
2017-12-13T05:00:09.281Z,14.10
2017-12-13T05:01:09.189Z,15.40
2017-12-13T05:02:09.167Z,14.60
2017-12-13T05:03:09.158Z,14.90
2017-12-13T05:04:09.132Z,14.80
2017-12-13T05:05:09.111Z,14.40
2017-12-13T05:06:09.136Z,14.80
2017-12-13T05:07:09.081Z,14.30
2017-12-13T05:08:09.060Z,14.50
2017-12-13T05:09:09.066Z,15.90
2017-12-13T05:10:09.037Z,14.10
2017-12-13T05:11:09.018Z,13.90
2017-12-13T05:12:09.019Z,13.90
2017-12-13T05:13:08.988Z,13.80
2017-12-13T05:14:08.961Z,13.80
2017-12-13T05:15:08.959Z,13.30
2017-12-13T05:16:08.932Z,13.30
2017-12-13T05:17:08.966Z,12.70
2017-12-13T05:18:08.909Z,13.10
2017-12-13T05:19:08.864Z,13.70
2017-12-13T05:20:08.849Z,14.00
2017-12-13T05:21:08.846Z,13.40
2017-12-13T05:22:08.809Z,13.50
2017-12-13T05:23:08.858Z,12.70
2017-12-13T05:24:08.783Z,13.60
2017-12-13T05:25:08.767Z,13.80
2017-12-13T05:26:08.738Z,13.30
2017-12-13T05:27:08.731Z,15.10
2017-12-13T05:28:08.699Z,14.40
2017-12-13T05:29:08.847Z,14.30
2017-12-13T05:30:08.681Z,13.70
2017-12-13T05:31:08.660Z,13.70
2017-12-13T05:32:08.641Z,13.80
2017-12-13T05:33:08.631Z,13.80
2017-12-13T05:34:08.602Z,12.60
2017-12-13T05:35:08.605Z,13.00
2017-12-13T05:36:08.609Z,12.80
2017-12-13T05:37:08.550Z,13.00
2017-12-13T05:38:08.542Z,14.30
2017-12-13T05:39:08.519Z,15.00
2017-12-13T05:40:08.511Z,13.50
2017-12-13T05:41:08.500Z,12.00
2017-12-13T05:42:08.466Z,13.20
2017-12-13T05:43:08.441Z,12.40
2017-12-13T05:44:08.432Z,14.10
2017-12-13T05:45:08.447Z,13.70
2017-12-13T05:46:08.445Z,13.60
2017-12-13T05:47:08.376Z,13.00
2017-12-13T05:48:08.356Z,12.80
2017-12-13T05:49:08.351Z,13.80
2017-12-13T05:50:08.321Z,13.40
2017-12-13T05:51:08.296Z,11.80
2017-12-13T05:52:08.346Z,11.80
2017-12-13T05:53:08.264Z,13.30
2017-12-13T05:54:08.264Z,14.70
2017-12-13T05:55:08.242Z,13.10
2017-12-13T05:56:08.209Z,11.60
2017-12-13T05:57:08.192Z,12.30
2017-12-13T05:58:08.818Z,13.70
2017-12-13T05:59:08.152Z,12.20
2017-12-13T06:00:08.138Z,11.70
2017-12-13T06:01:08.124Z,12.30
2017-12-13T06:02:08.103Z,12.60
2017-12-13T06:03:08.091Z,13.30
2017-12-13T06:04:08.200Z,13.70
2017-12-13T06:05:08.060Z,13.00
2017-12-13T06:06:08.051Z,12.30
2017-12-13T06:07:08.012Z,13.60
2017-12-13T06:08:08.061Z,13.90
2017-12-13T06:09:07.980Z,12.50
2017-12-13T06:10:07.967Z,13.00
2017-12-13T06:11:07.966Z,14.90
2017-12-13T06:12:07.939Z,11.80
2017-12-13T06:13:07.912Z,13.10
2017-12-13T06:14:07.965Z,12.90
2017-12-13T06:15:07.877Z,13.40
2017-12-13T06:16:07.862Z,13.20
2017-12-13T06:17:07.847Z,12.00
2017-12-13T06:18:07.824Z,12.70
2017-12-13T06:19:07.812Z,13.80
2017-12-13T06:20:07.865Z,14.40
2017-12-13T06:21:07.768Z,12.10
2017-12-13T06:22:07.773Z,13.60
2017-12-13T06:23:07.742Z,12.90
2017-12-13T06:24:07.744Z,12.10
2017-12-13T06:25:07.713Z,13.30
2017-12-13T06:26:07.719Z,11.70
2017-12-13T06:27:07.677Z,12.80
2017-12-13T06:28:07.712Z,13.20
2017-12-13T06:29:07.648Z,11.40
2017-12-13T06:30:07.618Z,12.50
2017-12-13T06:31:07.604Z,12.90
2017-12-13T06:32:07.576Z,12.20
2017-12-13T06:33:07.561Z,12.10
2017-12-13T06:34:07.583Z,11.50
2017-12-13T06:35:07.539Z,11.90
2017-12-13T06:36:07.512Z,12.00
2017-12-13T06:37:07.485Z,11.60
2017-12-13T06:38:07.538Z,11.40
2017-12-13T06:39:07.473Z,12.30
2017-12-13T06:40:07.442Z,13.20
2017-12-13T06:41:07.432Z,12.50
2017-12-13T06:42:07.417Z,12.30
2017-12-13T06:43:07.397Z,10.90
2017-12-13T06:44:07.431Z,11.70
2017-12-13T06:45:07.351Z,11.90
2017-12-13T06:46:07.334Z,11.30
2017-12-13T06:47:07.328Z,11.40
2017-12-13T06:48:07.308Z,12.10
2017-12-13T06:49:07.305Z,12.00
2017-12-13T06:50:07.328Z,11.10
2017-12-13T06:51:07.241Z,11.40
2017-12-13T06:52:07.245Z,11.80
2017-12-13T06:53:07.216Z,11.30
2017-12-13T06:54:07.198Z,16.10
2017-12-13T06:55:07.176Z,15.40
2017-12-13T06:56:07.234Z,13.30
2017-12-13T06:57:07.149Z,10.90
2017-12-13T06:58:07.116Z,11.80
2017-12-13T06:59:07.109Z,12.00
2017-12-13T07:00:07.079Z,12.10
2017-12-13T07:01:07.080Z,12.50
2017-12-13T07:02:07.082Z,12.00
2017-12-13T07:03:07.032Z,11.60
2017-12-13T07:04:07.015Z,11.80
2017-12-13T07:05:06.998Z,11.10
2017-12-13T07:06:06.981Z,12.90
2017-12-13T07:07:07.006Z,12.40
2017-12-13T07:08:06.944Z,12.20
2017-12-13T07:09:06.915Z,12.40
2017-12-13T07:10:06.919Z,12.40
2017-12-13T07:11:06.897Z,12.00
2017-12-13T07:12:06.940Z,11.70
2017-12-13T07:13:06.855Z,13.20
2017-12-13T07:14:06.845Z,11.70
2017-12-13T07:15:06.824Z,11.40
2017-12-13T07:16:06.841Z,10.80
2017-12-13T07:17:06.792Z,13.50
2017-12-13T07:18:06.894Z,11.10
2017-12-13T07:19:06.750Z,11.60
2017-12-13T07:20:06.727Z,12.70
2017-12-13T07:21:06.704Z,12.20
2017-12-13T07:22:06.695Z,13.50
2017-12-13T07:23:06.695Z,12.20
2017-12-13T07:24:06.710Z,13.10
2017-12-13T07:25:06.649Z,11.10
2017-12-13T07:26:06.634Z,10.90
2017-12-13T07:27:06.627Z,11.00
2017-12-13T07:28:06.656Z,12.00
2017-12-13T07:29:06.576Z,10.60
2017-12-13T07:30:06.551Z,11.50
2017-12-13T07:31:06.544Z,11.50
2017-12-13T07:32:06.528Z,10.50
2017-12-13T07:33:06.507Z,10.40
2017-12-13T07:34:06.527Z,11.10
2017-12-13T07:35:06.474Z,11.40
2017-12-13T07:36:06.482Z,11.90
2017-12-13T07:37:06.443Z,10.30
2017-12-13T07:38:06.426Z,11.60
2017-12-13T07:39:06.457Z,10.70
2017-12-13T07:40:06.389Z,12.90
2017-12-13T07:41:06.364Z,9.30
2017-12-13T07:42:06.348Z,13.50
2017-12-13T07:43:06.345Z,14.70
2017-12-13T07:44:06.306Z,12.70
2017-12-13T07:45:06.363Z,11.40
2017-12-13T07:46:06.295Z,10.10
2017-12-13T07:47:06.260Z,10.80
2017-12-13T07:48:06.233Z,9.90
2017-12-13T07:49:06.228Z,10.80
2017-12-13T07:50:06.213Z,10.60
2017-12-13T07:51:06.220Z,11.10
2017-12-13T07:52:06.163Z,11.60
2017-12-13T07:53:06.166Z,9.90
2017-12-13T07:54:06.132Z,10.60
2017-12-13T07:55:06.142Z,11.50
2017-12-13T07:56:06.098Z,9.60
2017-12-13T07:57:06.087Z,10.70
2017-12-13T07:58:06.063Z,9.70
2017-12-13T07:59:06.061Z,9.70
2017-12-13T08:00:06.100Z,9.70
2017-12-13T08:01:06.018Z,9.20
2017-12-13T08:02:06.003Z,10.90
2017-12-13T08:03:05.986Z,9.70
2017-12-13T08:04:05.970Z,9.00
2017-12-13T08:05:05.943Z,10.20
2017-12-13T08:06:05.979Z,10.10
2017-12-13T08:07:05.908Z,10.20
2017-12-13T08:08:05.887Z,10.30
2017-12-13T08:09:05.884Z,10.20
2017-12-13T08:10:05.855Z,9.40
2017-12-13T08:11:05.837Z,10.00
2017-12-13T08:12:05.854Z,11.50
2017-12-13T08:13:05.831Z,10.60
2017-12-13T08:14:05.804Z,11.40
2017-12-13T08:15:05.780Z,10.90
2017-12-13T08:16:05.755Z,9.10
2017-12-13T08:17:05.731Z,8.90
2017-12-13T08:18:05.775Z,9.50
2017-12-13T08:19:05.715Z,9.50
2017-12-13T08:20:05.684Z,11.20
2017-12-13T08:21:05.672Z,8.80
2017-12-13T08:22:05.667Z,10.10
2017-12-13T08:23:05.627Z,9.10
2017-12-13T08:24:05.663Z,12.40
2017-12-13T08:25:05.603Z,8.80
2017-12-13T08:26:05.601Z,9.10
2017-12-13T08:27:05.573Z,8.00
2017-12-13T08:28:05.544Z,9.20
2017-12-13T08:29:26.601Z,8.90
2017-12-13T08:30:05.514Z,8.80
2017-12-13T08:31:05.514Z,8.70
2017-12-13T08:32:05.478Z,8.90
2017-12-13T08:33:05.474Z,8.20
2017-12-13T08:34:05.437Z,9.00
2017-12-13T08:35:05.552Z,9.40
2017-12-13T08:36:05.417Z,8.10
2017-12-13T08:37:05.400Z,8.40
2017-12-13T08:38:05.381Z,8.90
2017-12-13T08:39:05.363Z,10.40
2017-12-13T08:40:05.359Z,8.90
2017-12-13T08:41:05.358Z,9.60
2017-12-13T08:42:05.324Z,9.20
2017-12-13T08:43:05.306Z,8.70
2017-12-13T08:44:11.254Z,7.70
2017-12-13T08:45:05.274Z,12.20
2017-12-13T08:46:05.251Z,9.40
2017-12-13T08:47:05.280Z,11.60
2017-12-13T08:48:05.210Z,9.20
2017-12-13T08:49:05.192Z,8.00
2017-12-13T08:50:05.173Z,8.80
2017-12-13T08:51:05.582Z,8.50
2017-12-13T08:52:06.056Z,10.50
2017-12-13T08:53:05.184Z,8.20
2017-12-13T08:54:05.785Z,9.00
2017-12-13T08:55:05.111Z,8.60
2017-12-13T08:56:05.080Z,8.40
2017-12-13T08:57:05.049Z,8.20
2017-12-13T08:58:05.049Z,6.60
2017-12-13T08:59:05.093Z,8.30
2017-12-13T09:00:05.013Z,7.60
2017-12-13T09:01:05.012Z,7.30
2017-12-13T09:02:04.987Z,8.60
2017-12-13T09:03:04.963Z,8.70
2017-12-13T09:04:04.961Z,8.20
2017-12-13T09:05:04.965Z,9.60
2017-12-13T09:06:04.913Z,7.70
2017-12-13T09:07:04.903Z,8.00
2017-12-13T09:08:04.866Z,8.50
2017-12-13T09:09:04.853Z,9.60
2017-12-13T09:10:04.899Z,7.20
2017-12-13T09:11:04.822Z,7.90
2017-12-13T09:12:04.805Z,9.00
2017-12-13T09:13:04.796Z,6.90
2017-12-13T09:14:04.775Z,7.90
2017-12-13T09:15:04.769Z,6.10
2017-12-13T09:16:04.773Z,6.20
2017-12-13T09:17:04.732Z,5.30
2017-12-13T09:18:04.711Z,8.90
2017-12-13T09:19:04.707Z,5.70
2017-12-13T09:20:04.670Z,6.40
2017-12-13T09:21:04.689Z,5.80
2017-12-13T09:22:04.644Z,6.20
2017-12-13T09:23:04.621Z,7.30
2017-12-13T09:24:04.686Z,5.40
2017-12-13T09:25:04.594Z,6.10
2017-12-13T09:26:04.634Z,6.70
2017-12-13T09:27:04.554Z,7.40
2017-12-13T09:28:04.556Z,5.50
2017-12-13T09:29:04.534Z,6.00
2017-12-13T09:30:04.528Z,7.40
2017-12-13T09:31:04.493Z,6.70
2017-12-13T09:32:04.555Z,4.60
2017-12-13T09:33:04.470Z,6.40
2017-12-13T09:34:04.450Z,5.50
2017-12-13T09:35:04.430Z,5.20
2017-12-13T09:36:04.417Z,6.80
2017-12-13T09:37:04.399Z,5.40
2017-12-13T09:38:04.461Z,9.10
2017-12-13T09:39:04.376Z,5.10
2017-12-13T09:40:04.343Z,5.10
2017-12-13T09:41:04.322Z,9.00
2017-12-13T09:42:04.309Z,7.70
2017-12-13T09:43:04.289Z,7.60
2017-12-13T09:44:04.332Z,5.10
2017-12-13T09:45:04.255Z,7.10
2017-12-13T09:46:04.245Z,6.60
2017-12-13T09:47:04.245Z,7.60
2017-12-13T09:48:04.200Z,6.70
2017-12-13T09:49:04.246Z,7.50
2017-12-13T09:50:04.183Z,7.10
2017-12-13T09:51:04.192Z,7.00
2017-12-13T09:52:04.148Z,6.50
2017-12-13T09:53:04.120Z,6.60
2017-12-13T09:54:04.106Z,8.60
2017-12-13T09:55:04.141Z,7.80
2017-12-13T09:56:04.149Z,9.90
2017-12-13T09:57:04.081Z,6.20
2017-12-13T09:58:04.083Z,6.60
2017-12-13T09:59:04.030Z,6.60
2017-12-13T10:00:04.000Z,7.40
2017-12-13T10:01:03.982Z,7.20
2017-12-13T10:02:04.021Z,5.80
2017-12-13T10:03:03.951Z,5.90
2017-12-13T10:04:03.960Z,8.10
2017-12-13T10:05:03.918Z,7.10
2017-12-13T10:06:03.917Z,7.90
2017-12-13T10:07:03.889Z,6.80
2017-12-13T10:08:03.903Z,6.20
2017-12-13T10:09:03.863Z,6.90
2017-12-13T10:10:04.389Z,5.60
2017-12-13T10:11:04.583Z,6.60
2017-12-13T10:12:08.850Z,5.80
2017-12-13T10:13:03.980Z,6.60
2017-12-13T10:14:04.388Z,6.10
2017-12-13T10:15:04.472Z,7.70
2017-12-13T10:16:04.479Z,6.40
2017-12-13T10:17:04.336Z,7.10
2017-12-13T10:18:03.807Z,7.10
2017-12-13T10:19:03.991Z,5.60
2017-12-13T10:20:04.620Z,6.80
2017-12-13T10:21:04.439Z,6.80
2017-12-13T10:22:03.656Z,5.90
2017-12-13T10:23:03.754Z,5.40
2017-12-13T10:24:03.658Z,6.30
2017-12-13T10:25:05.628Z,7.50
2017-12-13T10:26:04.337Z,6.10
2017-12-13T10:27:03.808Z,5.50
2017-12-13T10:28:03.573Z,6.70
2017-12-13T10:29:03.529Z,5.50
2017-12-13T10:30:03.527Z,7.10
2017-12-13T10:31:03.561Z,7.00
2017-12-13T10:32:03.491Z,5.90
2017-12-13T10:33:03.718Z,5.80
2017-12-13T10:34:03.450Z,5.10
2017-12-13T10:35:03.417Z,7.50
2017-12-13T10:36:03.407Z,8.10
2017-12-13T10:37:03.444Z,6.00
2017-12-13T10:38:03.362Z,7.20
2017-12-13T10:39:03.389Z,7.30
2017-12-13T10:40:03.345Z,5.60
2017-12-13T10:41:03.328Z,6.00
2017-12-13T10:42:03.460Z,9.50
2017-12-13T10:43:03.312Z,7.50
2017-12-13T10:44:03.269Z,6.00
2017-12-13T10:45:03.277Z,9.00
2017-12-13T10:46:03.305Z,6.60
2017-12-13T10:47:03.225Z,8.90
2017-12-13T10:48:03.215Z,8.30
2017-12-13T10:49:03.199Z,7.30
2017-12-13T10:50:03.188Z,9.20
2017-12-13T10:51:03.152Z,7.90
2017-12-13T10:52:03.174Z,6.40
2017-12-13T10:53:03.123Z,7.30
2017-12-13T10:54:03.127Z,7.00
2017-12-13T10:55:03.160Z,8.80
2017-12-13T10:56:03.085Z,7.60
2017-12-13T10:57:03.065Z,8.80
2017-12-13T10:58:03.030Z,6.80
2017-12-13T10:59:03.027Z,6.40
2017-12-13T11:00:03.008Z,6.90
2017-12-13T11:01:03.046Z,7.80
2017-12-13T11:02:02.990Z,9.70
2017-12-13T11:03:02.950Z,7.30
2017-12-13T11:04:02.949Z,8.70
2017-12-13T11:05:02.930Z,7.80
2017-12-13T11:06:02.900Z,10.60
2017-12-13T11:07:02.951Z,9.20
2017-12-13T11:08:03.629Z,9.20
2017-12-13T11:09:04.763Z,7.50
2017-12-13T11:10:03.405Z,7.40
2017-12-13T11:11:07.840Z,10.80
2017-12-13T11:12:03.234Z,9.80
2017-12-13T11:13:03.610Z,8.20
2017-12-13T11:14:02.832Z,9.00
2017-12-13T11:15:03.234Z,9.50
2017-12-13T11:16:03.448Z,8.60
2017-12-13T11:17:02.759Z,10.10
2017-12-13T11:18:02.707Z,10.70
2017-12-13T11:19:03.485Z,8.20
2017-12-13T11:20:02.730Z,10.20
2017-12-13T11:21:02.757Z,9.40
2017-12-13T11:22:03.476Z,9.40
2017-12-13T11:23:03.067Z,8.80
2017-12-13T11:24:02.620Z,10.70
2017-12-13T11:25:02.652Z,13.70
2017-12-13T11:26:02.580Z,8.70
2017-12-13T11:27:02.562Z,7.90
2017-12-13T11:28:03.406Z,8.30
2017-12-13T11:29:02.647Z,9.00
2017-12-13T11:30:02.520Z,7.60
2017-12-13T11:31:02.541Z,8.00
2017-12-13T11:32:02.483Z,9.10
2017-12-13T11:33:02.455Z,8.60
2017-12-13T11:34:02.461Z,10.10
2017-12-13T11:35:02.481Z,8.40
2017-12-13T11:36:02.408Z,10.70
2017-12-13T11:37:02.417Z,7.90
2017-12-13T11:38:02.366Z,10.50
2017-12-13T11:39:02.357Z,9.30
2017-12-13T11:40:02.436Z,8.60
2017-12-13T11:41:03.149Z,8.00
2017-12-13T11:42:02.303Z,9.10
2017-12-13T11:43:02.280Z,8.80
2017-12-13T11:44:02.281Z,9.60
2017-12-13T11:45:02.638Z,9.50
2017-12-13T11:46:04.194Z,11.00
2017-12-13T11:47:02.274Z,9.80
2017-12-13T11:48:03.059Z,8.40
2017-12-13T11:49:02.186Z,9.20
2017-12-13T11:50:02.168Z,9.80
2017-12-13T11:51:02.207Z,9.80
2017-12-13T11:52:02.145Z,7.30
2017-12-13T11:53:02.980Z,9.90
2017-12-13T11:54:02.104Z,10.00
2017-12-13T11:55:02.083Z,10.10
2017-12-13T11:56:02.074Z,11.30
2017-12-13T11:57:02.107Z,10.20
2017-12-13T11:58:02.419Z,6.90
2017-12-13T11:59:02.130Z,6.90
2017-12-13T12:00:02.075Z,9.30
2017-12-13T12:01:01.993Z,7.90
2017-12-13T12:02:01.996Z,10.00
2017-12-13T12:03:01.971Z,8.80
2017-12-13T12:04:01.935Z,9.60
2017-12-13T12:05:02.779Z,8.50
2017-12-13T12:06:02.704Z,9.80
2017-12-13T12:07:02.437Z,8.80
2017-12-13T12:08:01.923Z,8.70
2017-12-13T12:09:01.842Z,11.60
2017-12-13T12:10:01.946Z,8.00
2017-12-13T12:11:01.918Z,9.00
2017-12-13T12:12:02.044Z,9.30
2017-12-13T12:13:02.593Z,11.90
2017-12-13T12:14:04.307Z,10.70
2017-12-13T12:15:03.870Z,9.30
2017-12-13T12:16:02.143Z,7.80
2017-12-13T12:17:02.154Z,8.90
2017-12-13T12:18:02.567Z,9.60
2017-12-13T13:52:23.711Z,3.80
2017-12-13T13:53:15.719Z,3.40
2017-12-13T13:54:15.782Z,3.60
2017-12-13T13:55:15.773Z,3.40
2017-12-13T13:56:15.669Z,3.60
2017-12-13T13:57:17.431Z,3.40
2017-12-13T13:58:22.348Z,3.20
2017-12-13T13:59:18.773Z,3.00
2017-12-13T14:00:17.318Z,3.30
2017-12-13T14:01:17.315Z,3.50
2017-12-13T14:02:17.642Z,3.00
2017-12-13T14:03:16.492Z,3.00
2017-12-13T14:04:16.353Z,3.30
2017-12-13T14:05:16.839Z,3.10
2017-12-13T14:06:16.316Z,3.40
2017-12-13T14:07:16.840Z,3.50
2017-12-13T14:08:19.365Z,3.20
2017-12-13T14:09:17.857Z,3.40
2017-12-13T14:10:16.017Z,3.70
2017-12-13T14:11:19.049Z,3.70
2017-12-13T14:12:15.528Z,3.60
2017-12-13T14:13:16.156Z,3.20
2017-12-13T14:14:15.465Z,3.70
2017-12-13T14:15:16.848Z,3.50
2017-12-13T14:16:15.936Z,3.50
2017-12-13T14:17:15.341Z,3.70
2017-12-13T14:18:16.211Z,3.60
2017-12-13T14:19:15.312Z,3.40
2017-12-13T14:20:15.362Z,3.60
2017-12-13T14:21:15.248Z,3.40
2017-12-13T14:22:15.224Z,3.50
2017-12-13T14:23:15.316Z,4.00
2017-12-13T14:24:15.221Z,4.10
2017-12-13T14:25:21.423Z,4.40
2017-12-13T14:26:15.835Z,3.40
2017-12-13T14:27:15.106Z,3.60
2017-12-13T14:28:16.362Z,3.60
2017-12-13T14:29:16.258Z,3.50
2017-12-13T14:30:15.047Z,4.60
2017-12-13T14:31:15.506Z,4.10
2017-12-13T14:32:15.058Z,3.80
2017-12-13T14:33:15.015Z,4.90
2017-12-13T14:34:15.028Z,3.80